Disney Wonder — C6QM8 — position and weather

sailwx.info

Track history (hours):
 
Tides and Currents Weather Stations Pressure Air Temp Water Temp Dewpoint Dewpoint Depression Visibility Wind Speed Wind Dir Waves Ship Positions

Disney Wonder

Last reported at 2017-Aug-22 19:27 UTC. Time now 2017-Aug-24 01:11 UTC.
Position N 52°33' W 128°53'.

Length 301 m; draft 8.2 m.

Type: Passenger vessel. MMSI: 308457000.

Date/timePositionNaut miles runAvg speedWind from/ knotsBaromVisibWave heightAir tempDewpointWater temp
2017-Aug-22 19:27N 52°33' W 128°53'921.6
2017-Aug-22 19:00N 52°24' W 128°51'1121.0
2017-Aug-22 18:28N 52°13' W 128°59'1021.0
2017-Aug-22 18:00N 52°05' W 129°08'1120.3
2017-Aug-22 17:27N 51°56' W 129°19'1517.2
2017-Aug-22 16:35N 51°42' W 129°26'220.7
2017-Aug-22 16:30N 51°41' W 129°24'1121.8
2017-Aug-22 16:00N 51°34' W 129°10'1121.7
2017-Aug-22 15:30N 51°27' W 128°57'1121.1
2017-Aug-22 15:00N 51°20' W 128°44'1020.9
2017-Aug-22 14:30N 51°14' W 128°31'1121.5
2017-Aug-22 14:00N 51°09' W 128°16'1121.6
2017-Aug-22 13:29N 51°03' W 128°00'1121.8
2017-Aug-22 13:00N 50°58' W 127°45'1122.6
2017-Aug-22 12:30N 50°51' W 127°31'1122.0
2017-Aug-22 12:00N 50°47' W 127°15'1121.5
2017-Aug-22 11:29N 50°43' W 126°59'6317.1
2017-Aug-22 07:47N 50°20' W 125°26'516.2
2017-Aug-22 07:29N 50°16' W 125°23'815.6
2017-Aug-22 07:00N 50°08' W 125°21'612.0
2017-Aug-22 06:30N 50°04' W 125°15'612.7
2017-Aug-22 06:00N 49°58' W 125°10'713.5
2017-Aug-22 05:30N 49°53' W 125°03'713.6
2017-Aug-22 05:00N 49°49' W 124°55'713.8
2017-Aug-22 04:30N 49°44' W 124°47'713.8
2017-Aug-22 04:00N 49°39' W 124°40'714.3
2017-Aug-22 03:30N 49°34' W 124°33'714.4
2017-Aug-22 03:00N 49°28' W 124°27'714.8
2017-Aug-22 02:30N 49°25' W 124°16'816.4
2017-Aug-22 02:00N 49°23' W 124°04'816.9
2017-Aug-22 01:30N 49°21' W 123°51'917.2
2017-Aug-22 01:00N 49°20' W 123°38'917.4
2017-Aug-22 00:30N 49°19' W 123°25'917.2
2017-Aug-22 00:00N 49°19' W 123°12'4 6.3
2017-Aug-21 23:24N 49°17' W 123°07'0 0.0
2017-Aug-21 23:00N 49°17' W 123°07'0 0.0
2017-Aug-21 22:12N 49°17' W 123°07'0 0.0
2017-Aug-21 22:00N 49°17' W 123°07'0 0.0
2017-Aug-21 21:24N 49°17' W 123°07'0 0.0
2017-Aug-21 20:57N 49°17' W 123°07'0 0.0
2017-Aug-21 20:27N 49°17' W 123°07'0 0.0
2017-Aug-21 20:00N 49°17' W 123°07'0 0.0
2017-Aug-21 19:30N 49°17' W 123°07'0 0.0
2017-Aug-21 19:00N 49°17' W 123°07'0 0.0
2017-Aug-21 18:00N 49°17' W 123°07'0 0.0
2017-Aug-21 17:21N 49°17' W 123°07'0 0.0
2017-Aug-21 14:12N 49°17' W 123°07'0 0.2
2017-Aug-21 14:00N 49°17' W 123°07'1 2.6
2017-Aug-21 13:30N 49°19' W 123°08'510.1
2017-Aug-21 13:00N 49°18' W 123°15'611.7
2017-Aug-21 12:30N 49°18' W 123°24'815.7
2017-Aug-21 12:00N 49°19' W 123°36'815.8
2017-Aug-21 11:30N 49°20' W 123°48'816.8
2017-Aug-21 11:00N 49°22' W 124°01'917.7
2017-Aug-21 10:30N 49°24' W 124°14'917.6
2017-Aug-21 10:00N 49°28' W 124°26'918.9
2017-Aug-21 09:30N 49°35' W 124°36'1121.6
2017-Aug-21 09:00N 49°43' W 124°47'1121.6
2017-Aug-21 08:30N 49°51' W 124°59'1019.6
2017-Aug-21 08:00N 49°58' W 125°10'815.4
2017-Aug-21 07:30N 50°04' W 125°15'612.4
2017-Aug-21 07:01N 50°09' W 125°21'4 8.2
2017-Aug-21 06:30N 50°13' W 125°23'611.0
2017-Aug-21 05:58N 50°19' W 125°25'5414.2
2017-Aug-21 02:10N 50°37' W 126°45'316.5
2017-Aug-21 01:59N 50°39' W 126°49'917.3
2017-Aug-21 01:27N 50°43' W 127°02'717.1
2017-Aug-21 01:00N 50°46' W 127°13'2416.3
2017-Aug-20 23:33N 50°58' W 127°45'116.1
2017-Aug-20 23:30N 50°58' W 127°46'816.4
2017-Aug-20 23:00N 51°06' W 127°52'817.1
2017-Aug-20 22:30N 51°14' W 127°53'918.0
2017-Aug-20 22:00N 51°23' W 127°52'917.6
2017-Aug-20 21:30N 51°32' W 127°52'917.6
2017-Aug-20 21:00N 51°40' W 127°56'917.4
2017-Aug-20 20:30N 51°49' W 127°57'917.7
2017-Aug-20 20:00N 51°58' W 127°56'917.8
2017-Aug-20 19:30N 52°07' W 127°53'20 9.9
2017-Aug-20 17:32N 52°15' W 128°22'115.8
2017-Aug-20 17:28N 52°15' W 128°24'816.9
2017-Aug-20 17:00N 52°14' W 128°36'917.5
2017-Aug-20 16:30N 52°12' W 128°51'  
2017-Aug-15 18:49N 52°36' W 128°53'721.0
2017-Aug-15 18:30N 52°29' W 128°52'1020.3
2017-Aug-15 18:00N 52°19' W 128°52'1020.5
2017-Aug-15 17:30N 52°11' W 129°02'1021.0
2017-Aug-15 17:00N 52°02' W 129°12'1121.3
2017-Aug-15 16:30N 51°53' W 129°22'1019.9
2017-Aug-15 16:00N 51°44' W 129°29'1020.2
2017-Aug-15 15:30N 51°37' W 129°17'1019.7
2017-Aug-15 15:00N 51°31' W 129°05'1020.2
2017-Aug-15 14:30N 51°25' W 128°53'1020.9
2017-Aug-15 14:00N 51°18' W 128°40'1121.0
2017-Aug-15 13:30N 51°12' W 128°26'1020.5
2017-Aug-15 13:00N 51°07' W 128°12'1020.3
2017-Aug-15 12:30N 51°02' W 127°57'1020.7
2017-Aug-15 12:00N 50°57' W 127°43'1121.1
2017-Aug-15 11:30N 50°51' W 127°30'1121.0
2017-Aug-15 11:00N 50°47' W 127°14'1121.1
2017-Aug-15 10:30N 50°43' W 126°59'1220.8
2017-Aug-15 09:57N 50°36' W 126°44'815.1
2017-Aug-15 09:27N 50°31' W 126°36'918.7
2017-Aug-15 09:00N 50°30' W 126°23'918.1
2017-Aug-15 08:30N 50°28' W 126°09'2818.4
2017-Aug-15 06:58N 50°20' W 125°26'816.4
2017-Aug-15 06:30N 50°13' W 125°23'713.5
2017-Aug-15 06:01N 50°07' W 125°19'713.2
2017-Aug-15 05:30N 50°01' W 125°13'713.6
2017-Aug-15 05:00N 49°56' W 125°07'815.8
2017-Aug-15 04:31N 49°51' W 124°58'816.4
2017-Aug-15 04:01N 49°45' W 124°49'816.3
2017-Aug-15 03:31N 49°39' W 124°40'1019.1
2017-Aug-15 03:01N 49°31' W 124°31'1019.9
2017-Aug-15 02:31N 49°25' W 124°19'1121.1
2017-Aug-15 02:01N 49°22' W 124°04'1121.1
2017-Aug-15 01:31N 49°20' W 123°48'1020.9
2017-Aug-15 01:01N 49°18' W 123°32'1020.7
2017-Aug-15 00:31N 49°19' W 123°16'713.0
2017-Aug-15 00:00N 49°18' W 123°06'1 1.3
2017-Aug-14 23:30N 49°17' W 123°07'0 0.0
2017-Aug-14 23:00N 49°17' W 123°07'0 0.0
2017-Aug-14 22:30N 49°17' W 123°07'0 0.0
2017-Aug-14 22:00N 49°17' W 123°07'0 0.0
2017-Aug-14 21:30N 49°17' W 123°07'0 0.0
2017-Aug-14 21:00N 49°17' W 123°07'0 0.0
2017-Aug-14 20:30N 49°17' W 123°07'0 0.0
2017-Aug-14 20:00N 49°17' W 123°07'0 0.0
2017-Aug-14 19:30N 49°17' W 123°07'0 0.0
2017-Aug-14 18:54N 49°17' W 123°07'0 0.0
2017-Aug-14 18:30N 49°17' W 123°07'0 0.0
2017-Aug-14 17:54N 49°17' W 123°07'0 0.0
2017-Aug-14 17:30N 49°17' W 123°07'0 0.0
2017-Aug-14 17:00N 49°17' W 123°07'0 0.0
2017-Aug-14 16:30N 49°17' W 123°07'0 0.0
2017-Aug-14 15:54N 49°17' W 123°07'0 0.0
2017-Aug-14 15:30N 49°17' W 123°07'0 0.0
2017-Aug-14 15:00N 49°17' W 123°07'0 0.0
2017-Aug-14 14:30N 49°17' W 123°07'0 0.0
2017-Aug-14 14:00N 49°17' W 123°07'1 1.5
2017-Aug-14 13:31N 49°18' W 123°07'4 8.3
2017-Aug-14 13:00N 49°19' W 123°13'510.7
2017-Aug-14 12:31N 49°18' W 123°21'5 9.0
2017-Aug-14 12:01N 49°18' W 123°28'4 8.6
2017-Aug-14 11:30N 49°18' W 123°35'510.0
2017-Aug-14 11:01N 49°19' W 123°42'510.2
2017-Aug-14 10:31N 49°20' W 123°50'510.7
2017-Aug-14 10:01N 49°21' W 123°58'611.2
2017-Aug-14 09:31N 49°23' W 124°06'510.8
2017-Aug-14 09:01N 49°24' W 124°14'611.4
2017-Aug-14 08:30N 49°26' W 124°22'510.9
2017-Aug-14 08:01N 49°30' W 124°29'611.2
2017-Aug-14 07:31N 49°34' W 124°35'611.5
2017-Aug-14 07:00N 49°38' W 124°41'714.6
2017-Aug-14 06:30N 49°43' W 124°48'917.7
2017-Aug-14 06:00N 49°50' W 124°57'918.0
2017-Aug-14 05:30N 49°56' W 125°07'713.9
2017-Aug-14 05:00N 50°02' W 125°14'713.5
2017-Aug-14 04:30N 50°07' W 125°20'713.9
2017-Aug-14 04:00N 50°14' W 125°23'6014.0
2017-Aug-13 23:43N 50°39' W 126°49'518.1
2017-Aug-13 23:25N 50°42' W 126°56'717.7
2017-Aug-13 23:00N 50°45' W 127°07'917.6
2017-Aug-13 22:30N 50°48' W 127°20'917.3
2017-Aug-13 22:00N 50°52' W 127°32'816.7
2017-Aug-13 21:30N 50°57' W 127°43'816.8
2017-Aug-13 21:00N 51°01' W 127°54'917.4
2017-Aug-13 20:30N 51°05' W 128°06'816.7
2017-Aug-13 20:00N 51°09' W 128°18'816.7
2017-Aug-13 19:30N 51°13' W 128°29'816.5
2017-Aug-13 19:00N 51°18' W 128°40'817.0
2017-Aug-13 18:30N 51°23' W 128°51'816.2
2017-Aug-13 18:00N 51°29' W 129°01'815.8
2017-Aug-13 17:30N 51°34' W 129°11'915.9
2017-Aug-13 16:58N 51°39' W 129°21'  
Track history (hours):
 
Tides and Currents Weather Stations Pressure Air Temp Water Temp Dewpoint Dewpoint Depression Visibility Wind Speed Wind Dir Waves Ship Positions

Disney Wonder

Last reported at 2017-Aug-22 19:27 UTC. Time now 2017-Aug-24 01:11 UTC.
Position N 52°33' W 128°53'.

Length 301 m; draft 8.2 m.

Type: Passenger vessel. MMSI: 308457000.

Date/timePositionNaut miles runAvg speedWind from/ knotsBaromVisibWave heightAir tempDewpointWater temp
2017-Aug-22 19:27N 52°33' W 128°53'921.6
2017-Aug-22 19:00N 52°24' W 128°51'1121.0
2017-Aug-22 18:28N 52°13' W 128°59'1021.0
2017-Aug-22 18:00N 52°05' W 129°08'1120.3
2017-Aug-22 17:27N 51°56' W 129°19'1517.2
2017-Aug-22 16:35N 51°42' W 129°26'220.7
2017-Aug-22 16:30N 51°41' W 129°24'1121.8
2017-Aug-22 16:00N 51°34' W 129°10'1121.7
2017-Aug-22 15:30N 51°27' W 128°57'1121.1
2017-Aug-22 15:00N 51°20' W 128°44'1020.9
2017-Aug-22 14:30N 51°14' W 128°31'1121.5
2017-Aug-22 14:00N 51°09' W 128°16'1121.6
2017-Aug-22 13:29N 51°03' W 128°00'1121.8
2017-Aug-22 13:00N 50°58' W 127°45'1122.6
2017-Aug-22 12:30N 50°51' W 127°31'1122.0
2017-Aug-22 12:00N 50°47' W 127°15'1121.5
2017-Aug-22 11:29N 50°43' W 126°59'6317.1
2017-Aug-22 07:47N 50°20' W 125°26'516.2
2017-Aug-22 07:29N 50°16' W 125°23'815.6
2017-Aug-22 07:00N 50°08' W 125°21'612.0
2017-Aug-22 06:30N 50°04' W 125°15'612.7
2017-Aug-22 06:00N 49°58' W 125°10'713.5
2017-Aug-22 05:30N 49°53' W 125°03'713.6
2017-Aug-22 05:00N 49°49' W 124°55'713.8
2017-Aug-22 04:30N 49°44' W 124°47'713.8
2017-Aug-22 04:00N 49°39' W 124°40'714.3
2017-Aug-22 03:30N 49°34' W 124°33'714.4
2017-Aug-22 03:00N 49°28' W 124°27'714.8
2017-Aug-22 02:30N 49°25' W 124°16'816.4
2017-Aug-22 02:00N 49°23' W 124°04'816.9
2017-Aug-22 01:30N 49°21' W 123°51'917.2
2017-Aug-22 01:00N 49°20' W 123°38'917.4
2017-Aug-22 00:30N 49°19' W 123°25'917.2
2017-Aug-22 00:00N 49°19' W 123°12'4 6.3
2017-Aug-21 23:24N 49°17' W 123°07'0 0.0
2017-Aug-21 23:00N 49°17' W 123°07'0 0.0
2017-Aug-21 22:12N 49°17' W 123°07'0 0.0
2017-Aug-21 22:00N 49°17' W 123°07'0 0.0
2017-Aug-21 21:24N 49°17' W 123°07'0 0.0
2017-Aug-21 20:57N 49°17' W 123°07'0 0.0
2017-Aug-21 20:27N 49°17' W 123°07'0 0.0
2017-Aug-21 20:00N 49°17' W 123°07'0 0.0
2017-Aug-21 19:30N 49°17' W 123°07'0 0.0
2017-Aug-21 19:00N 49°17' W 123°07'0 0.0
2017-Aug-21 18:00N 49°17' W 123°07'0 0.0
2017-Aug-21 17:21N 49°17' W 123°07'0 0.0
2017-Aug-21 14:12N 49°17' W 123°07'0 0.2
2017-Aug-21 14:00N 49°17' W 123°07'1 2.6
2017-Aug-21 13:30N 49°19' W 123°08'510.1
2017-Aug-21 13:00N 49°18' W 123°15'611.7
2017-Aug-21 12:30N 49°18' W 123°24'815.7
2017-Aug-21 12:00N 49°19' W 123°36'815.8
2017-Aug-21 11:30N 49°20' W 123°48'816.8
2017-Aug-21 11:00N 49°22' W 124°01'917.7
2017-Aug-21 10:30N 49°24' W 124°14'917.6
2017-Aug-21 10:00N 49°28' W 124°26'918.9
2017-Aug-21 09:30N 49°35' W 124°36'1121.6
2017-Aug-21 09:00N 49°43' W 124°47'1121.6
2017-Aug-21 08:30N 49°51' W 124°59'1019.6
2017-Aug-21 08:00N 49°58' W 125°10'815.4
2017-Aug-21 07:30N 50°04' W 125°15'612.4
2017-Aug-21 07:01N 50°09' W 125°21'4 8.2
2017-Aug-21 06:30N 50°13' W 125°23'611.0
2017-Aug-21 05:58N 50°19' W 125°25'5414.2
2017-Aug-21 02:10N 50°37' W 126°45'316.5
2017-Aug-21 01:59N 50°39' W 126°49'917.3
2017-Aug-21 01:27N 50°43' W 127°02'717.1
2017-Aug-21 01:00N 50°46' W 127°13'2416.3
2017-Aug-20 23:33N 50°58' W 127°45'116.1
2017-Aug-20 23:30N 50°58' W 127°46'816.4
2017-Aug-20 23:00N 51°06' W 127°52'817.1
2017-Aug-20 22:30N 51°14' W 127°53'918.0
2017-Aug-20 22:00N 51°23' W 127°52'917.6
2017-Aug-20 21:30N 51°32' W 127°52'917.6
2017-Aug-20 21:00N 51°40' W 127°56'917.4
2017-Aug-20 20:30N 51°49' W 127°57'917.7
2017-Aug-20 20:00N 51°58' W 127°56'917.8
2017-Aug-20 19:30N 52°07' W 127°53'20 9.9
2017-Aug-20 17:32N 52°15' W 128°22'115.8
2017-Aug-20 17:28N 52°15' W 128°24'816.9
2017-Aug-20 17:00N 52°14' W 128°36'917.5
2017-Aug-20 16:30N 52°12' W 128°51'  
2017-Aug-15 18:49N 52°36' W 128°53'721.0
2017-Aug-15 18:30N 52°29' W 128°52'1020.3
2017-Aug-15 18:00N 52°19' W 128°52'1020.5
2017-Aug-15 17:30N 52°11' W 129°02'1021.0
2017-Aug-15 17:00N 52°02' W 129°12'1121.3
2017-Aug-15 16:30N 51°53' W 129°22'1019.9
2017-Aug-15 16:00N 51°44' W 129°29'1020.2
2017-Aug-15 15:30N 51°37' W 129°17'1019.7
2017-Aug-15 15:00N 51°31' W 129°05'1020.2
2017-Aug-15 14:30N 51°25' W 128°53'1020.9
2017-Aug-15 14:00N 51°18' W 128°40'1121.0
2017-Aug-15 13:30N 51°12' W 128°26'1020.5
2017-Aug-15 13:00N 51°07' W 128°12'1020.3
2017-Aug-15 12:30N 51°02' W 127°57'1020.7
2017-Aug-15 12:00N 50°57' W 127°43'1121.1
2017-Aug-15 11:30N 50°51' W 127°30'1121.0
2017-Aug-15 11:00N 50°47' W 127°14'1121.1
2017-Aug-15 10:30N 50°43' W 126°59'1220.8
2017-Aug-15 09:57N 50°36' W 126°44'815.1
2017-Aug-15 09:27N 50°31' W 126°36'918.7
2017-Aug-15 09:00N 50°30' W 126°23'918.1
2017-Aug-15 08:30N 50°28' W 126°09'2818.4
2017-Aug-15 06:58N 50°20' W 125°26'816.4
2017-Aug-15 06:30N 50°13' W 125°23'713.5
2017-Aug-15 06:01N 50°07' W 125°19'713.2
2017-Aug-15 05:30N 50°01' W 125°13'713.6
2017-Aug-15 05:00N 49°56' W 125°07'815.8
2017-Aug-15 04:31N 49°51' W 124°58'816.4
2017-Aug-15 04:01N 49°45' W 124°49'816.3
2017-Aug-15 03:31N 49°39' W 124°40'1019.1
2017-Aug-15 03:01N 49°31' W 124°31'1019.9
2017-Aug-15 02:31N 49°25' W 124°19'1121.1
2017-Aug-15 02:01N 49°22' W 124°04'1121.1
2017-Aug-15 01:31N 49°20' W 123°48'1020.9
2017-Aug-15 01:01N 49°18' W 123°32'1020.7
2017-Aug-15 00:31N 49°19' W 123°16'713.0
2017-Aug-15 00:00N 49°18' W 123°06'1 1.3
2017-Aug-14 23:30N 49°17' W 123°07'0 0.0
2017-Aug-14 23:00N 49°17' W 123°07'0 0.0
2017-Aug-14 22:30N 49°17' W 123°07'0 0.0
2017-Aug-14 22:00N 49°17' W 123°07'0 0.0
2017-Aug-14 21:30N 49°17' W 123°07'0 0.0
2017-Aug-14 21:00N 49°17' W 123°07'0 0.0
2017-Aug-14 20:30N 49°17' W 123°07'0 0.0
2017-Aug-14 20:00N 49°17' W 123°07'0 0.0
2017-Aug-14 19:30N 49°17' W 123°07'0 0.0
2017-Aug-14 18:54N 49°17' W 123°07'0 0.0
2017-Aug-14 18:30N 49°17' W 123°07'0 0.0
2017-Aug-14 17:54N 49°17' W 123°07'0 0.0
2017-Aug-14 17:30N 49°17' W 123°07'0 0.0
2017-Aug-14 17:00N 49°17' W 123°07'0 0.0
2017-Aug-14 16:30N 49°17' W 123°07'0 0.0
2017-Aug-14 15:54N 49°17' W 123°07'0 0.0
2017-Aug-14 15:30N 49°17' W 123°07'0 0.0
2017-Aug-14 15:00N 49°17' W 123°07'0 0.0
2017-Aug-14 14:30N 49°17' W 123°07'0 0.0
2017-Aug-14 14:00N 49°17' W 123°07'1 1.5
2017-Aug-14 13:31N 49°18' W 123°07'4 8.3
2017-Aug-14 13:00N 49°19' W 123°13'510.7
2017-Aug-14 12:31N 49°18' W 123°21'5 9.0
2017-Aug-14 12:01N 49°18' W 123°28'4 8.6
2017-Aug-14 11:30N 49°18' W 123°35'510.0
2017-Aug-14 11:01N 49°19' W 123°42'510.2
2017-Aug-14 10:31N 49°20' W 123°50'510.7
2017-Aug-14 10:01N 49°21' W 123°58'611.2
2017-Aug-14 09:31N 49°23' W 124°06'510.8
2017-Aug-14 09:01N 49°24' W 124°14'611.4
2017-Aug-14 08:30N 49°26' W 124°22'510.9
2017-Aug-14 08:01N 49°30' W 124°29'611.2
2017-Aug-14 07:31N 49°34' W 124°35'611.5
2017-Aug-14 07:00N 49°38' W 124°41'714.6
2017-Aug-14 06:30N 49°43' W 124°48'917.7
2017-Aug-14 06:00N 49°50' W 124°57'918.0
2017-Aug-14 05:30N 49°56' W 125°07'713.9
2017-Aug-14 05:00N 50°02' W 125°14'713.5
2017-Aug-14 04:30N 50°07' W 125°20'713.9
2017-Aug-14 04:00N 50°14' W 125°23'6014.0
2017-Aug-13 23:43N 50°39' W 126°49'518.1
2017-Aug-13 23:25N 50°42' W 126°56'717.7
2017-Aug-13 23:00N 50°45' W 127°07'917.6
2017-Aug-13 22:30N 50°48' W 127°20'917.3
2017-Aug-13 22:00N 50°52' W 127°32'816.7
2017-Aug-13 21:30N 50°57' W 127°43'816.8
2017-Aug-13 21:00N 51°01' W 127°54'917.4
2017-Aug-13 20:30N 51°05' W 128°06'816.7
2017-Aug-13 20:00N 51°09' W 128°18'816.7
2017-Aug-13 19:30N 51°13' W 128°29'816.5
2017-Aug-13 19:00N 51°18' W 128°40'817.0
2017-Aug-13 18:30N 51°23' W 128°51'816.2
2017-Aug-13 18:00N 51°29' W 129°01'815.8
2017-Aug-13 17:30N 51°34' W 129°11'915.9
2017-Aug-13 16:58N 51°39' W 129°21'  

Dump ship's entire track history